Latest Weather Observations for Gelantipy

IDV60801

Issued at 11:32 am EST Friday 14 May 2021 (issued every 10 minutes, with the page automatically refreshed every 10 minutes)

About weather observations | Map of weather stations | Latest weather observations for VIC | Other Formats
Station Details ID: 084142 Name: GELANTIPY Lat: -37.22 Lon: 148.26 Height: 755.0 m
Data from the previous 72 hours. | See also: Recent months at Gelantipy
Date/Time
EST
Temp
°C
App
Temp
°C
Dew
Point
°C
Rel
Hum
%
Delta-T
°C
Wind Press
QNH
hPa
Press
MSL
hPa
Rain since
9am
mm
Dir  Spd
km/h
Gust
km/h
Spd
kts
Gust
kts
14/11:30am 8.9 1.8 1.3 59 3.3 W 28 44 15 24 1010.7 1010.6 0.0
14/11:00am 8.6 0.5 1.3 60 3.1 W 33 43 18 23 1010.7 1010.6 0.0
14/10:30am 8.4 0.6 2.0 64 2.8 W 32 44 17 24 1011.2 1011.1 0.0
14/10:00am 7.9 0.7 0.9 61 3.0 W 28 41 15 22 1011.0 1010.9 0.0
14/09:30am 7.5 0.4 1.1 64 2.7 W 28 37 15 20 1011.0 1010.9 0.0
14/09:00am 7.2 1.0 1.9 69 2.3 W 24 39 13 21 1010.8 1010.7 7.6
14/08:30am 6.8 0.4 1.1 67 2.4 W 24 35 13 19 1010.6 1010.5 7.6
14/08:00am 5.7 -0.7 1.1 72 1.9 W 24 33 13 18 1010.2 1010.0 7.6
14/07:30am 4.9 -1.2 0.5 73 1.8 WNW 22 32 12 17 1010.0 1009.8 7.6
14/07:00am 4.8 -0.9 0.8 75 1.6 WNW 20 28 11 15 1009.6 1009.5 7.6
14/06:30am 4.3 -1.0 1.7 83 1.1 WNW 19 24 10 13 1009.4 1009.3 7.6
14/06:00am 4.0 -0.2 3.7 98 0.1 W 15 24 8 13 1009.4 1009.3 7.6
14/05:30am 2.7 -0.6 2.7 100 0.0 NNE 9 11 5 6 1009.3 1009.1 7.6
14/05:00am 4.2 1.6 4.2 100 0.0 N 7 9 4 5 1009.1 1008.9 7.6
14/04:30am 3.8 1.1 3.8 100 0.0 NNE 7 13 4 7 1008.8 1008.6 7.6
14/04:00am 4.5 3.3 4.5 100 0.0 CALM 0 0 0 0 1009.0 1008.8 7.6
14/03:30am 4.8 3.6 4.8 100 0.0 CALM 0 0 0 0 1008.9 1008.7 7.6
14/03:00am 5.0 3.5 5.0 100 0.0 S 2 7 1 4 1009.1 1008.9 7.6
14/02:30am 5.0 2.5 5.0 100 0.0 S 7 9 4 5 1009.4 1009.3 7.4
14/02:00am 5.0 2.2 5.0 100 0.0 SW 9 13 5 7 1009.6 1009.5 7.4
14/01:30am 5.0 2.5 5.0 100 0.0 SSW 7 13 4 7 1009.7 1009.6 7.2
14/01:00am 5.1 2.3 5.1 100 0.0 S 9 15 5 8 1009.8 1009.7 6.6
14/12:30am 5.2 2.4 5.2 100 0.0 SSW 9 19 5 10 1010.2 1010.0 6.0
14/12:00am 5.3 1.8 5.3 100 0.0 SSW 13 22 7 12 1010.2 1010.0 5.2
 
Date/Time
EST
Temp
°C
App
Temp
°C
Dew
Point
°C
Rel
Hum
%
Delta-T
°C
Wind Press
QNH
hPa
Press
MSL
hPa
Rain since
9am
mm
Dir  Spd
km/h
Gust
km/h
Spd
kts
Gust
kts
13/11:30pm 5.8 2.4 5.7 99 0.0 SSW 13 19 7 10 1010.3 1010.1 4.0
13/11:00pm 6.1 2.7 5.8 98 0.1 SSW 13 22 7 12 1010.2 1010.0 2.2
13/10:30pm 7.3 5.3 6.9 97 0.2 SSW 7 13 4 7 1010.1 1009.9 0.6
13/10:00pm 7.4 4.1 6.5 94 0.4 S 13 17 7 9 1010.1 1009.9 0.0
13/09:30pm 9.4 6.4 4.2 70 2.4 SSW 9 15 5 8 1010.0 1009.8 0.0
13/09:00pm 9.4 5.6 3.8 68 2.6 W 13 19 7 10 1009.7 1009.6 0.0
13/08:30pm 9.3 5.5 3.9 69 2.5 WSW 13 20 7 11 1009.7 1009.6 0.0
13/08:00pm 10.1 4.9 3.4 63 3.1 W 20 28 11 15 1010.0 1009.8 0.0
13/07:30pm 9.8 6.7 3.5 65 2.9 WSW 9 20 5 11 1009.8 1009.7 0.0
13/07:00pm 9.8 5.9 3.5 65 2.9 NW 13 22 7 12 1010.0 1009.8 0.0
13/06:30pm 10.0 6.5 3.5 64 3.0 W 11 20 6 11 1010.2 1010.0 0.0
13/06:00pm 10.4 5.7 3.2 61 3.3 NW 17 33 9 18 1009.7 1009.6 0.0
13/05:30pm 10.3 8.5 3.6 63 3.1 E 2 9 1 5 1009.0 1008.8 0.0
13/05:00pm 11.1 6.9 3.9 61 3.4 NNE 15 22 8 12 1008.7 1008.5 0.0
13/04:30pm 12.2 8.7 3.4 55 4.1 N 11 20 6 11 1008.7 1008.5 0.0
13/04:00pm 11.9 7.1 4.6 61 3.5 WNW 19 35 10 19 1009.3 1009.1 0.0
13/03:30pm 11.5 6.4 5.8 68 2.8 N 22 32 12 17 1008.9 1008.7 0.0
13/03:00pm 12.4 9.9 4.9 60 3.6 NW 7 15 4 8 1009.5 1009.4 0.0
13/02:30pm 12.7 9.1 5.1 60 3.7 NNW 13 24 7 13 1009.8 1009.7 0.0
13/02:00pm 13.1 9.2 5.3 59 3.8 NW 15 28 8 15 1010.2 1010.0 0.0
13/01:30pm 13.9 10.9 5.8 58 4.0 WNW 11 19 6 10 1010.0 1009.8 0.0
13/01:00pm 13.4 11.5 7.6 68 3.0 N 7 13 4 7 1010.6 1010.5 0.0
13/12:30pm 13.3 10.3 6.2 62 3.5 NW 11 17 6 9 1011.0 1010.9 0.0
13/12:00pm 13.2 9.0 5.6 60 3.7 NW 17 26 9 14 1011.4 1011.2 0.0
13/11:30am 13.3 8.6 6.2 62 3.5 NW 20 32 11 17 1012.0 1011.9 0.0
13/11:00am 14.3 10.3 6.6 60 3.9 NNW 17 24 9 13 1012.6 1012.5 0.0
13/10:30am 13.7 9.9 7.5 66 3.2 NNW 17 26 9 14 1013.2 1013.1 0.0
13/10:00am 11.4 8.0 9.0 85 1.2 NNE 17 26 9 14 1013.5 1013.4 0.0
13/09:30am 10.3 6.9 9.1 92 0.6 N 17 22 9 12 1013.8 1013.7 0.0
13/09:00am 9.2 5.4 7.6 90 0.8 N 17 22 9 12 1014.2 1014.1 4.4
13/08:30am 9.3 6.0 7.9 91 0.7 NNE 15 20 8 11 1014.2 1014.1 4.4
13/08:00am 7.0 4.2 6.9 99 0.0 NNE 11 15 6 8 1014.4 1014.3 4.4
13/07:30am 5.2 1.2 5.1 99 0.0 NNE 15 19 8 10 1014.6 1014.5 4.4
13/07:00am 5.2 1.3 5.2 100 0.0 NNE 15 20 8 11 1014.7 1014.6 4.4
13/06:30am 5.5 2.0 5.4 99 0.0 NNE 13 22 7 12 1014.9 1014.8 4.2
13/06:00am 5.8 2.4 5.8 100 0.0 N 13 19 7 10 1014.9 1014.8 4.2
13/05:30am 5.0 2.2 5.0 100 0.0 NNE 9 17 5 9 1015.1 1015.1 4.2
13/05:00am 5.8 3.1 5.8 100 0.0 NNE 9 13 5 7 1015.1 1015.1 4.2
13/04:30am 6.4 3.1 6.4 100 0.0 NNE 13 19 7 10 1015.2 1015.2 4.2
13/04:00am 6.1 2.4 6.1 100 0.0 NNE 15 20 8 11 1015.2 1015.2 4.2
13/03:30am 6.4 2.0 6.4 100 0.0 N 19 22 10 12 1015.2 1015.2 4.2
13/03:00am 6.3 1.7 6.3 100 0.0 N 20 22 11 12 1015.8 1015.7 4.2
13/02:30am 6.6 2.2 6.6 100 0.0 N 19 20 10 11 1016.4 1016.4 4.2
13/02:00am 7.0 2.5 7.0 100 0.0 N 20 24 11 13 1016.7 1016.7 4.2
13/01:30am 7.6 3.2 7.5 99 0.0 NNE 20 24 11 13 1017.2 1017.1 4.2
13/01:00am 7.0 2.5 6.9 99 0.0 NNE 20 22 11 12 1017.5 1017.5 4.2
13/12:30am 6.5 2.1 6.4 99 0.0 NNE 19 20 10 11 1017.8 1017.8 4.2
13/12:00am 7.1 2.8 6.8 98 0.1 NNE 19 22 10 12 1018.0 1018.0 4.2
 
Date/Time
EST
Temp
°C
App
Temp
°C
Dew
Point
°C
Rel
Hum
%
Delta-T
°C
Wind Press
QNH
hPa
Press
MSL
hPa
Rain since
9am
mm
Dir  Spd
km/h
Gust
km/h
Spd
kts
Gust
kts
12/11:30pm 8.0 3.7 7.9 99 0.0 NNE 20 24 11 13 1018.2 1018.2 4.2
12/11:00pm 7.4 3.1 7.0 97 0.2 NNE 19 22 10 12 1018.6 1018.6 4.2
12/10:30pm 7.6 3.2 7.3 98 0.1 N 20 22 11 12 1019.0 1019.0 4.2
12/10:00pm 8.1 3.4 7.8 98 0.1 N 22 26 12 14 1019.1 1019.1 4.2
12/09:30pm 7.6 3.4 7.5 99 0.0 N 19 20 10 11 1019.3 1019.3 4.0
12/09:00pm 5.9 2.9 5.9 100 0.0 NNE 11 13 6 7 1019.7 1019.8 4.0
12/08:30pm 6.7 3.8 6.6 99 0.0 NNE 11 15 6 8 1019.6 1019.7 4.0
12/08:00pm 7.3 4.9 7.2 99 0.0 NNE 9 15 5 8 1019.6 1019.7 4.0
12/07:30pm 7.7 5.8 7.6 99 0.0 NNE 7 9 4 5 1020.0 1020.0 4.0
12/07:00pm 8.3 7.8 8.0 98 0.1 CALM 0 0 0 0 1020.1 1020.1 4.0
12/06:30pm 9.0 8.7 8.7 98 0.2 CALM 0 0 0 0 1020.1 1020.1 4.0
12/06:00pm 9.2 7.8 8.9 98 0.2 WSW 6 9 3 5 1019.9 1019.9 4.0
12/05:30pm 9.4 9.1 8.8 96 0.3 CALM 0 0 0 0 1019.3 1019.3 4.0
12/05:00pm 9.9 8.5 9.0 94 0.5 ESE 6 7 3 4 1019.3 1019.3 4.0
12/04:30pm 10.8 9.9 9.4 91 0.7 S 4 7 2 4 1019.4 1019.4 4.0
12/04:00pm 11.7 11.7 9.9 89 1.0 CALM 0 0 0 0 1019.9 1019.9 4.0
12/03:30pm 11.5 10.3 10.4 93 0.6 WSW 7 9 4 5 1019.9 1019.9 4.0
12/03:00pm 10.6 9.3 9.8 95 0.4 SW 7 11 4 6 1020.1 1020.1 4.0
12/02:30pm 10.8 8.9 10.5 98 0.2 W 11 15 6 8 1020.3 1020.3 4.0
12/02:00pm 10.7 8.8 10.5 99 0.1 WSW 11 15 6 8 1020.4 1020.4 4.0
12/01:30pm 10.6 8.7 10.4 99 0.1 WSW 11 13 6 7 1020.5 1020.5 4.0
12/01:00pm 10.1 8.1 10.1 100 0.0 WSW 11 17 6 9 1021.1 1021.2 4.0
12/12:30pm 10.0 8.0 10.0 100 0.0 WSW 11 15 6 8 1021.6 1021.6 4.0
12/12:00pm 9.4 7.6 9.4 100 0.0 WSW 9 11 5 6 1022.2 1022.3 3.8
12/11:30am 9.4 7.2 9.4 100 0.0 SW 11 15 6 8 1022.8 1022.8 3.2
12/11:00am 9.1 6.8 9.1 100 0.0 SW 11 15 6 8 1023.1 1023.2 3.0
12/10:30am 8.8 6.4 8.8 100 0.0 SW 11 17 6 9 1023.3 1023.4 2.4
12/10:00am 8.6 5.8 8.6 100 0.0 SW 13 17 7 9 1023.6 1023.7 1.4
12/09:30am 8.4 5.9 8.4 100 0.0 SW 11 15 6 8 1023.8 1023.9 0.8
12/09:00am 8.1 6.0 8.1 100 0.0 SW 9 13 5 7 1023.8 1023.9 22.4
12/08:30am 7.9 5.3 7.9 100 0.0 SW 11 15 6 8 1023.9 1024.0 22.2
12/08:00am 7.7 5.5 7.7 100 0.0 SW 9 15 5 8 1023.6 1023.7 22.0
12/07:30am 7.6 5.3 7.6 100 0.0 SW 9 13 5 7 1023.6 1023.7 21.6
12/07:00am 7.5 5.2 7.5 100 0.0 SW 9 13 5 7 1023.5 1023.6 21.4
12/06:30am 7.5 5.2 7.5 100 0.0 SW 9 13 5 7 1023.5 1023.6 21.0
12/06:00am 7.4 4.7 7.4 100 0.0 SW 11 15 6 8 1023.3 1023.4 21.0
12/05:30am 7.4 5.1 7.4 100 0.0 SSW 9 15 5 8 1023.3 1023.4 20.8
12/05:00am 7.4 5.1 7.4 100 0.0 SW 9 19 5 10 1023.3 1023.4 20.6
12/04:30am 7.3 5.0 7.3 100 0.0 SW 9 15 5 8 1023.1 1023.2 20.4
12/04:00am 7.3 5.3 7.3 100 0.0 SSW 7 13 4 7 1023.2 1023.3 20.2
12/03:30am 7.2 5.2 7.2 100 0.0 SSW 7 11 4 6 1023.1 1023.2 20.0
12/03:00am 7.1 4.7 7.1 100 0.0 SW 9 13 5 7 1023.1 1023.2 19.8
12/02:30am 7.0 4.2 7.0 100 0.0 SW 11 15 6 8 1023.3 1023.4 19.4
12/02:00am 7.0 5.0 7.0 100 0.0 SW 7 13 4 7 1023.6 1023.7 19.2
12/01:30am 6.9 4.1 6.9 100 0.0 SW 11 17 6 9 1023.5 1023.6 19.0
12/01:00am 7.0 4.2 7.0 100 0.0 SW 11 15 6 8 1023.5 1023.6 18.6
12/12:30am 6.9 4.5 6.9 100 0.0 SSW 9 13 5 7 1023.6 1023.7 18.4
12/12:00am 6.8 3.2 6.8 100 0.0 SSW 15 20 8 11 1023.6 1023.7 18.2
 
Date/Time
EST
Temp
°C
App
Temp
°C
Dew
Point
°C
Rel
Hum
%
Delta-T
°C
Wind Press
QNH
hPa
Press
MSL
hPa
Rain since
9am
mm
Dir  Spd
km/h
Gust
km/h
Spd
kts
Gust
kts
11/11:30pm 6.9 4.1 6.9 100 0.0 S 11 20 6 11 1023.8 1023.9 18.2
11/11:00pm 6.9 4.5 6.9 100 0.0 SSW 9 13 5 7 1023.7 1023.8 17.8
11/10:30pm 6.9 4.1 6.9 100 0.0 SSE 11 19 6 10 1023.6 1023.7 17.8
11/10:00pm 6.9 4.1 6.9 100 0.0 SSW 11 20 6 11 1023.6 1023.7 17.4
11/09:30pm 6.9 3.7 6.9 100 0.0 S 13 22 7 12 1023.5 1023.6 17.2
11/09:00pm 7.0 3.8 7.0 100 0.0 SSW 13 19 7 10 1023.3 1023.4 16.8
11/08:30pm 7.0 4.2 7.0 100 0.0 S 11 19 6 10 1023.2 1023.3 16.6
11/08:00pm 6.9 4.1 6.9 100 0.0 SSW 11 19 6 10 1023.0 1023.0 16.2
11/07:30pm 6.8 4.4 6.8 100 0.0 SSW 9 13 5 7 1022.8 1022.8 15.8
11/07:00pm 6.7 4.2 6.7 100 0.0 SSW 9 15 5 8 1022.5 1022.6 15.2
11/06:30pm 6.7 4.2 6.6 99 0.0 SSW 9 19 5 10 1022.3 1022.4 15.0
11/06:00pm 6.7 3.1 6.6 99 0.0 SSW 15 26 8 14 1021.9 1022.0 14.6
11/05:30pm 7.2 4.0 6.9 98 0.1 S 13 22 7 12 1021.5 1021.5 14.2
11/05:00pm 7.4 4.6 7.1 98 0.1 S 11 20 6 11 1021.1 1021.2 13.0
11/04:30pm 7.3 4.4 6.7 96 0.3 S 11 17 6 9 1020.9 1021.0 12.2
11/04:00pm 7.6 4.0 6.9 95 0.3 SSE 15 28 8 15 1020.5 1020.5 11.6
11/03:30pm 8.2 4.8 7.8 97 0.2 SE 15 28 8 15 1019.9 1019.9 11.0
11/03:00pm 8.5 4.5 8.1 97 0.2 SSE 19 33 10 18 1019.3 1019.3 10.4
11/02:30pm 8.8 4.8 8.4 97 0.2 SSE 19 35 10 19 1018.9 1018.9 9.6
11/02:00pm 8.8 5.2 8.5 98 0.2 S 17 32 9 17 1018.3 1018.3 8.8
11/01:30pm 8.8 5.6 8.5 98 0.2 S 15 22 8 12 1018.0 1018.0 7.6
11/01:00pm 9.3 6.6 9.0 98 0.2 SE 13 19 7 10 1017.7 1017.7 5.6
11/12:30pm 9.4 7.1 9.1 98 0.2 S 11 15 6 8 1017.3 1017.2 4.2
11/12:00pm 9.5 7.6 8.9 96 0.3 S 9 13 5 7 1017.2 1017.1 2.2

Other formats

Comma delimited format used in spreadsheet applications
http://www.bom.gov.au/fwo/IDV60801/IDV60801.94913.axf

JavaScript Object Notation format (JSON) in row-major order
http://www.bom.gov.au/fwo/IDV60801/IDV60801.94913.json

Data quality

Most of these data are generated automatically and are frequently updated. Quality checks on data are not normally performed. It is possible for incorrect values to appear. Refer to information at About Latest Weather Observations and please check the disclaimer before using these data.